createdAt,value
2019-02-04T00:03:19.878Z,19.23
2019-02-04T00:08:21.613Z,17.43
2019-02-04T00:13:23.050Z,18.47
2019-02-04T00:18:24.594Z,21.13
2019-02-04T00:23:26.026Z,12.57
2019-02-04T00:28:28.557Z,12.67
2019-02-04T00:33:30.033Z,13.83
2019-02-04T00:38:31.661Z,20.07
2019-02-04T00:43:33.099Z,16.80
2019-02-04T00:48:34.581Z,17.30
2019-02-04T00:53:37.229Z,25.50
2019-02-04T00:58:38.649Z,19.37
2019-02-04T01:03:40.627Z,18.00
2019-02-04T01:08:42.097Z,11.70
2019-02-04T01:13:43.522Z,12.67
2019-02-04T01:18:44.963Z,13.20
2019-02-04T01:23:46.390Z,15.80
2019-02-04T01:28:48.828Z,6.60
2019-02-04T01:33:50.305Z,9.57
2019-02-04T01:38:51.744Z,11.93
2019-02-04T01:43:53.174Z,12.23
2019-02-04T01:48:54.645Z,9.33
2019-02-04T01:53:56.082Z,9.00
2019-02-04T01:58:57.563Z,9.10
2019-02-04T02:03:59.000Z,7.53
2019-02-04T02:09:00.473Z,5.53
2019-02-04T02:14:01.994Z,7.87
2019-02-04T02:19:03.590Z,8.50
2019-02-04T02:24:05.146Z,6.40
2019-02-04T02:29:06.677Z,5.33
2019-02-04T02:34:08.112Z,6.57
2019-02-04T02:39:09.611Z,7.07
2019-02-04T02:44:11.237Z,8.67
2019-02-04T02:49:12.678Z,6.83
2019-02-04T02:54:15.514Z,6.77
2019-02-04T02:59:17.365Z,5.33
2019-02-04T03:04:18.818Z,8.00
2019-02-04T03:09:20.255Z,7.50
2019-02-04T03:14:21.709Z,6.40
2019-02-04T03:19:23.216Z,7.87
2019-02-04T03:24:24.692Z,5.70
2019-02-04T03:29:26.148Z,5.50
2019-02-04T03:34:27.679Z,7.20
2019-02-04T03:39:29.106Z,8.30
2019-02-04T03:44:30.537Z,7.13
2019-02-04T03:49:32.013Z,6.03
2019-02-04T03:54:39.470Z,6.27
2019-02-04T03:59:40.906Z,6.90
2019-02-04T04:04:42.336Z,5.30
2019-02-04T04:09:43.767Z,6.43
2019-02-04T04:14:45.241Z,4.37
2019-02-04T04:19:46.713Z,3.53
2019-02-04T04:24:48.151Z,4.83
2019-02-04T04:29:49.590Z,5.70
2019-02-04T04:34:51.039Z,7.80
2019-02-04T04:39:52.472Z,6.00
2019-02-04T04:44:53.946Z,6.37
2019-02-04T04:49:55.375Z,5.47
2019-02-04T04:54:57.113Z,8.00
2019-02-04T04:59:58.677Z,9.37
2019-02-04T05:05:00.317Z,11.97
2019-02-04T05:10:03.240Z,6.60
2019-02-04T05:15:09.575Z,10.07
2019-02-04T05:20:14.911Z,9.03
2019-02-04T05:25:16.854Z,6.73
2019-02-04T05:30:21.467Z,6.67
2019-02-04T05:35:23.088Z,10.63
2019-02-04T05:40:24.620Z,9.30
2019-02-04T05:45:26.056Z,9.57
2019-02-04T05:50:27.514Z,7.10
2019-02-04T05:55:30.605Z,9.43
2019-02-04T06:00:34.338Z,10.67
2019-02-04T06:05:35.762Z,13.53
2019-02-04T06:10:37.397Z,11.37
2019-02-04T06:15:38.934Z,12.87
2019-02-04T06:20:40.753Z,13.27
2019-02-04T06:25:42.373Z,12.17
2019-02-04T06:30:43.807Z,10.50
2019-02-04T06:35:45.689Z,12.10
2019-02-04T06:40:47.225Z,12.17
2019-02-04T06:45:48.712Z,15.50
2019-02-04T06:50:51.062Z,12.37
2019-02-04T06:55:52.727Z,13.03
2019-02-04T07:00:54.268Z,13.10
2019-02-04T07:05:55.760Z,14.30
2019-02-04T07:10:57.394Z,12.63
2019-02-04T07:15:58.827Z,20.77
2019-02-04T07:21:00.298Z,15.70
2019-02-04T07:26:01.736Z,19.67
2019-02-04T07:31:03.460Z,19.40
2019-02-04T07:36:05.139Z,16.90
2019-02-04T07:41:06.742Z,23.83
2019-02-04T07:46:08.372Z,22.10
2019-02-04T07:51:09.904Z,18.40
2019-02-04T07:56:11.329Z,14.40
2019-02-04T08:01:12.863Z,16.57
2019-02-04T08:06:14.349Z,13.17
2019-02-04T08:11:16.127Z,16.90
2019-02-04T08:16:19.087Z,22.07
2019-02-04T08:21:20.947Z,17.53
2019-02-04T08:26:22.693Z,23.53
2019-02-04T08:31:24.406Z,20.60
2019-02-04T08:36:27.474Z,24.17
2019-02-04T08:41:29.185Z,22.77
2019-02-04T08:46:31.880Z,24.83
2019-02-04T08:51:33.741Z,21.37
2019-02-04T08:56:35.625Z,22.20
2019-02-04T09:01:37.536Z,23.67
2019-02-04T09:06:39.049Z,25.63
2019-02-04T09:11:41.105Z,29.03
2019-02-04T09:16:44.122Z,30.97
2019-02-04T09:21:45.816Z,28.80
2019-02-04T09:26:47.256Z,25.77
2019-02-04T09:31:48.721Z,21.83
2019-02-04T09:36:50.142Z,26.03
2019-02-04T09:41:52.013Z,21.30
2019-02-04T09:46:53.454Z,22.63
2019-02-04T09:51:54.890Z,22.77
2019-02-04T09:56:56.460Z,46.33
2019-02-04T10:01:58.095Z,25.87
2019-02-04T10:06:59.533Z,24.47
2019-02-04T10:12:01.000Z,16.37
2019-02-04T10:17:02.526Z,21.00
2019-02-04T10:22:04.460Z,23.13
2019-02-04T10:27:06.081Z,19.80
2019-02-04T10:32:07.819Z,20.77
2019-02-04T10:37:09.253Z,15.50
2019-02-04T10:42:10.806Z,17.23
2019-02-04T10:47:12.758Z,18.70
2019-02-04T10:52:14.342Z,18.13
2019-02-04T10:57:15.969Z,12.77
2019-02-04T11:02:17.480Z,19.47
2019-02-04T11:07:19.092Z,18.47
2019-02-04T11:12:20.805Z,23.17
2019-02-04T11:17:22.439Z,20.53
2019-02-04T11:22:23.907Z,21.67
2019-02-04T11:27:25.729Z,21.57
2019-02-04T11:32:27.270Z,22.43
2019-02-04T11:37:28.731Z,23.17
2019-02-04T11:42:30.319Z,25.67
2019-02-04T11:47:32.125Z,23.07
2019-02-04T11:52:35.177Z,28.43
2019-02-04T11:57:37.135Z,24.27
2019-02-04T12:02:39.072Z,21.00
2019-02-04T12:07:40.730Z,21.27
2019-02-04T12:12:42.397Z,27.40
2019-02-04T12:17:44.145Z,28.40
2019-02-04T12:22:47.681Z,27.90
2019-02-04T12:27:49.475Z,20.97
2019-02-04T12:32:51.105Z,24.43
2019-02-04T12:37:52.601Z,24.07
2019-02-04T12:42:54.549Z,26.70
2019-02-04T12:47:56.210Z,21.80
2019-02-04T12:52:57.891Z,29.67
2019-02-04T12:58:00.177Z,26.00
2019-02-04T13:03:02.389Z,27.20
2019-02-04T13:08:06.817Z,25.23
2019-02-04T13:13:12.684Z,31.73
2019-02-04T13:18:14.438Z,26.80
2019-02-04T13:23:16.634Z,26.97
2019-02-04T13:28:18.298Z,28.50
2019-02-04T13:33:20.500Z,26.50
2019-02-04T13:38:22.046Z,28.80
2019-02-04T13:43:23.671Z,28.40
2019-02-04T13:48:25.623Z,26.70
2019-02-04T13:53:27.284Z,32.90
2019-02-04T13:58:29.064Z,93.63
2019-02-04T14:03:30.647Z,32.37
2019-02-04T14:08:32.206Z,39.53
2019-02-04T14:13:33.816Z,45.30
2019-02-04T14:18:35.436Z,40.00
2019-02-04T14:23:37.016Z,43.47
2019-02-04T14:28:38.623Z,37.77
2019-02-04T14:33:40.080Z,37.07
2019-02-04T14:38:41.742Z,36.37
2019-02-04T14:43:43.896Z,38.57
2019-02-04T14:48:56.867Z,37.97
2019-02-04T14:54:38.084Z,40.67
2019-02-04T14:59:40.604Z,47.67
2019-02-04T15:04:56.443Z,39.80
2019-02-04T15:10:23.481Z,42.17
2019-02-04T15:16:11.831Z,33.30
2019-02-04T15:21:38.946Z,31.63
2019-02-04T15:26:55.238Z,33.27
2019-02-04T15:32:23.882Z,34.90
2019-02-04T15:37:36.529Z,33.10
2019-02-04T15:43:08.022Z,34.70
2019-02-04T15:48:12.677Z,33.50
2019-02-04T15:53:14.177Z,39.37
2019-02-04T15:58:15.665Z,41.03
2019-02-04T16:03:17.712Z,40.90
2019-02-04T16:08:19.330Z,41.17
2019-02-04T16:13:20.942Z,42.20
2019-02-04T16:18:22.600Z,47.67
2019-02-04T16:23:24.140Z,44.57
2019-02-04T16:28:25.607Z,47.70
2019-02-04T16:33:27.518Z,51.73
2019-02-04T16:38:29.116Z,51.03
2019-02-04T16:43:31.158Z,55.73
2019-02-04T16:48:32.789Z,64.30
2019-02-04T16:53:34.226Z,61.47
2019-02-04T16:58:35.702Z,58.13
2019-02-04T17:03:38.179Z,53.83
2019-02-04T17:08:39.732Z,55.17
2019-02-04T17:13:41.233Z,55.67
2019-02-04T17:18:43.072Z,56.33
2019-02-04T17:23:45.369Z,59.90
2019-02-04T17:28:47.006Z,60.77
2019-02-04T17:33:48.548Z,60.10
2019-02-04T17:38:50.172Z,57.93
2019-02-04T17:43:51.710Z,61.67
2019-02-04T17:48:53.175Z,64.93
2019-02-04T17:53:54.685Z,64.70
2019-02-04T17:58:56.250Z,66.27
2019-02-04T18:03:57.741Z,57.97
2019-02-04T18:08:59.191Z,54.13
2019-02-04T18:14:00.664Z,58.03
2019-02-04T18:19:02.818Z,61.07
2019-02-04T18:24:04.526Z,59.43
2019-02-04T18:29:06.156Z,63.20
2019-02-04T18:34:08.246Z,57.87
2019-02-04T18:39:10.038Z,59.43
2019-02-04T18:44:11.802Z,63.70
2019-02-04T18:49:13.737Z,62.17
2019-02-04T18:54:15.644Z,68.20
2019-02-04T18:59:17.216Z,63.97
2019-02-04T19:04:18.912Z,62.67
2019-02-04T19:09:21.866Z,65.93
2019-02-04T19:14:23.782Z,65.83
2019-02-04T19:19:25.733Z,66.50
2019-02-04T19:24:27.196Z,65.77
2019-02-04T19:29:28.782Z,71.10
2019-02-04T19:34:30.323Z,72.93
2019-02-04T19:39:32.100Z,67.53
2019-02-04T19:44:33.569Z,67.50
2019-02-04T19:49:35.146Z,73.23
2019-02-04T19:54:36.851Z,71.93
2019-02-04T19:59:38.740Z,67.70
2019-02-04T20:04:40.523Z,61.90
2019-02-04T20:09:42.262Z,61.67
2019-02-04T20:14:43.807Z,66.93
2019-02-04T20:19:45.277Z,58.80
2019-02-04T20:24:46.798Z,57.57
2019-02-04T20:29:48.257Z,56.60
2019-02-04T20:34:49.811Z,52.57
2019-02-04T20:39:51.686Z,51.57
2019-02-04T20:44:53.267Z,49.20
2019-02-04T20:49:54.808Z,52.90
2019-02-04T20:54:56.355Z,47.93
2019-02-04T20:59:57.856Z,43.13
2019-02-04T21:04:59.475Z,46.00
2019-02-04T21:10:01.178Z,49.47
2019-02-04T21:15:09.809Z,54.43
2019-02-04T21:20:23.550Z,80.07
2019-02-04T21:25:25.443Z,100.43
2019-02-04T21:30:35.588Z,246.07
2019-02-04T21:35:37.695Z,131.73
2019-02-04T21:40:39.538Z,126.97
2019-02-04T21:45:41.236Z,77.80
2019-02-04T21:50:42.803Z,72.43
2019-02-04T21:55:44.281Z,117.07
2019-02-04T22:00:45.896Z,133.67
2019-02-04T22:05:47.479Z,126.10
2019-02-04T22:10:49.108Z,69.60
2019-02-04T22:15:50.791Z,80.47
2019-02-04T22:20:52.341Z,105.20
2019-02-04T22:25:53.873Z,85.67
2019-02-04T22:30:55.416Z,71.37
2019-02-04T22:35:56.840Z,86.80
2019-02-04T22:40:58.294Z,71.13
2019-02-04T22:45:59.764Z,64.33
2019-02-04T22:51:01.212Z,65.77
2019-02-04T22:56:03.739Z,68.17
2019-02-04T23:01:17.009Z,72.17
2019-02-04T23:06:18.702Z,71.50
2019-02-04T23:11:20.437Z,66.50
2019-02-04T23:16:21.953Z,67.50
2019-02-04T23:21:23.699Z,68.00
2019-02-04T23:26:27.106Z,74.20
2019-02-04T23:31:28.593Z,75.57
2019-02-04T23:36:30.317Z,73.27
2019-02-04T23:41:31.792Z,72.00
2019-02-04T23:46:33.357Z,80.63
2019-02-04T23:51:34.994Z,78.33
2019-02-04T23:56:36.439Z,70.13
